Time;durP1;ratioP1;P1;durP2;ratioP2;P2;SDS_P1;SDS_P2;PMS_P1;PMS_P2;Temp;Humidity;BMP_temperature;BMP_pressure;BME280_temperature;BME280_humidity;BME280_pressure;Samples;Min_cycle;Max_cycle;Signal;HPM_P1;HPM_P2
2023/04/29 00:02:41;;;;;;;;;;;;;;;25.37;40.22;98979.16;1901122;75;20165;-55
2023/04/29 00:05:28;;;;;;;;;;;;;;;25.38;40.25;98973.95;1895445;74;20122;-55
2023/04/29 00:08:16;;;;;;;;;;;;;;;25.36;40.21;98971.47;1914127;75;20211;-55
2023/04/29 00:11:03;;;;;;;;;;;;;;;25.36;40.23;98969.27;1904891;75;20185;-55
2023/04/29 00:13:51;;;;;;;;;;;;;;;25.37;40.21;98964.03;1913085;75;20150;-56
2023/04/29 00:16:38;;;;;;;;;;;;;;;25.32;40.29;98962.08;1888565;75;20215;-56
2023/04/29 00:19:26;;;;;;;;;;;;;;;25.35;40.21;98960.72;1887574;76;20191;-57
2023/04/29 00:22:14;;;;;;;;;;;;;;;25.34;40.24;98970.08;1890145;75;20166;-57
2023/04/29 00:25:03;;;;;;;;;;;;;;;25.33;40.19;98987.66;1912068;75;20126;-57
2023/04/29 00:27:50;;;;;;;;;;;;;;;25.33;40.17;98987.66;1898198;75;20113;-57
2023/04/29 00:30:37;;;;;;;;;;;;;;;25.31;40.21;98970.06;1905676;75;20181;-57
2023/04/29 00:33:25;;;;;;;;;;;;;;;25.25;40.16;98951.06;1911831;75;20147;-56
2023/04/29 00:36:12;;;;;;;;;;;;;;;25.32;40.12;98955.77;1920176;75;20177;-57
2023/04/29 00:39:00;;;;;;;;;;;;;;;25.31;40.12;98954.11;1920345;74;20123;-55
2023/04/29 00:41:47;;;;;;;;;;;;;;;25.31;40.15;98948.06;1911656;74;20158;-56
2023/04/29 00:44:35;;;;;;;;;;;;;;;25.32;40.12;98943.41;1911648;74;20119;-58
2023/04/29 00:47:22;;;;;;;;;;;;;;;25.32;40.15;98940.66;1925369;74;20156;-53
2023/04/29 00:50:10;;;;;;;;;;;;;;;25.32;40.08;98944.78;1914576;75;20173;-57
2023/04/29 00:52:58;;;;;;;;;;;;;;;25.30;40.11;98945.02;1914368;74;20121;-59
2023/04/29 00:55:47;;;;;;;;;;;;;;;25.32;40.10;98955.20;1884397;74;20216;-56
2023/04/29 00:58:35;;;;;;;;;;;;;;;25.31;40.11;98965.94;1880732;76;20189;-57
2023/04/29 01:01:23;;;;;;;;;;;;;;;25.32;40.06;98961.27;1879273;76;20203;-55
2023/04/29 01:04:11;;;;;;;;;;;;;;;25.32;40.01;98964.02;1879456;75;20285;-54
2023/04/29 01:07:03;;;;;;;;;;;;;;;25.31;40.01;98960.44;1877342;76;20158;-58
2023/04/29 01:09:53;;;;;;;;;;;;;;;25.30;40.00;98957.94;1888013;75;20178;-57
2023/04/29 01:13:00;;;;;;;;;;;;;;;25.28;39.97;98951.88;1857386;76;20131;-58
2023/04/29 01:15:57;;;;;;;;;;;;;;;25.28;39.98;98956.00;1872728;76;20167;-58
2023/04/29 01:18:56;;;;;;;;;;;;;;;25.25;40.02;98955.18;1884567;76;20241;-57
2023/04/29 01:21:48;;;;;;;;;;;;;;;25.24;40.05;98959.01;1879973;76;20216;-56
2023/04/29 01:24:36;;;;;;;;;;;;;;;25.23;40.02;98958.17;1873074;76;20120;-56
2023/04/29 01:27:25;;;;;;;;;;;;;;;25.23;40.01;98960.09;1867011;76;20176;-57
2023/04/29 01:30:28;;;;;;;;;;;;;;;25.20;40.00;98951.85;1882797;76;20184;-57
2023/04/29 01:33:21;;;;;;;;;;;;;;;25.19;39.98;98946.06;1880342;76;20203;-56
2023/04/29 01:36:28;;;;;;;;;;;;;;;25.19;40.04;98938.36;1875455;76;20208;-56
2023/04/29 01:39:18;;;;;;;;;;;;;;;25.21;40.02;98930.66;1873296;76;20215;-56
2023/04/29 01:42:11;;;;;;;;;;;;;;;25.16;40.01;98924.59;1871820;76;20202;-56
2023/04/29 01:45:01;;;;;;;;;;;;;;;25.18;40.00;98927.09;1876311;76;20125;-57
2023/04/29 01:47:50;;;;;;;;;;;;;;;25.16;40.01;98921.00;1882213;76;20212;-55
2023/04/29 01:50:38;;;;;;;;;;;;;;;25.18;39.99;98930.64;1884474;76;20149;-57
2023/04/29 01:53:27;;;;;;;;;;;;;;;25.19;39.98;98931.48;1863788;76;20124;-57
2023/04/29 01:56:15;;;;;;;;;;;;;;;25.17;39.89;98929.55;1876695;75;20182;-57
2023/04/29 01:59:04;;;;;;;;;;;;;;;25.17;39.98;98923.51;1884738;76;20218;-55
2023/04/29 02:02:10;;;;;;;;;;;;;;;25.18;39.97;98925.72;1864498;76;20157;-56
2023/04/29 02:05:00;;;;;;;;;;;;;;;25.16;39.92;98927.88;1880301;75;20125;-56
2023/04/29 02:07:47;;;;;;;;;;;;;;;25.15;39.92;98918.00;1874319;76;20154;-55
2023/04/29 02:10:35;;;;;;;;;;;;;;;25.15;39.94;98920.74;1817345;79;20129;-55
2023/04/29 02:13:24;;;;;;;;;;;;;;;25.15;39.88;98918.00;1825713;77;20210;-56
2023/04/29 02:16:12;;;;;;;;;;;;;;;25.14;39.92;98914.95;1807664;78;20184;-56
2023/04/29 02:19:01;;;;;;;;;;;;;;;25.13;39.88;98913.31;1818304;78;20188;-57
2023/04/29 02:21:49;;;;;;;;;;;;;;;25.13;39.99;98913.31;1824730;78;20188;-57
2023/04/29 02:24:38;;;;;;;;;;;;;;;25.14;39.93;98910.83;1849000;77;20204;-56
2023/04/29 02:27:27;;;;;;;;;;;;;;;25.13;39.88;98892.70;1816962;78;20164;-57
2023/04/29 02:30:14;;;;;;;;;;;;;;;25.12;39.85;98878.13;1831748;78;20164;-58
2023/04/29 02:33:02;;;;;;;;;;;;;;;25.12;39.84;98890.49;1831877;78;20213;-57
2023/04/29 02:35:49;;;;;;;;;;;;;;;25.13;39.80;98911.40;1832239;78;20278;-56
2023/04/29 02:38:37;;;;;;;;;;;;;;;25.14;39.80;98925.41;1815307;78;20143;-57
2023/04/29 02:41:24;;;;;;;;;;;;;;;25.15;39.83;98901.50;1832103;78;20173;-54
2023/04/29 02:44:12;;;;;;;;;;;;;;;25.14;39.82;98890.22;1832247;78;20155;-58
2023/04/29 02:47:00;;;;;;;;;;;;;;;25.11;39.84;98891.57;1831871;78;20190;-58
2023/04/29 02:49:48;;;;;;;;;;;;;;;25.13;39.80;98881.70;1803223;78;20135;-59
2023/04/29 02:52:35;;;;;;;;;;;;;;;25.11;39.83;98881.95;1827380;78;20162;-56
2023/04/29 02:55:23;;;;;;;;;;;;;;;25.12;39.83;98889.12;1812034;78;20149;-57
2023/04/29 02:58:11;;;;;;;;;;;;;;;25.11;39.80;98899.02;1830440;78;20127;-55
2023/04/29 03:00:58;;;;;;;;;;;;;;;25.11;39.83;98920.43;1868048;76;20149;-57
2023/04/29 03:03:46;;;;;;;;;;;;;;;25.10;39.81;98953.69;1827858;77;20207;-54
2023/04/29 03:06:33;;;;;;;;;;;;;;;25.09;39.80;98990.48;1852887;77;20150;-55
2023/04/29 03:09:22;;;;;;;;;;;;;;;25.08;39.73;99032.28;1823012;77;20127;-56
2023/04/29 03:12:10;;;;;;;;;;;;;;;25.09;39.83;99045.45;1876246;76;20209;-57
2023/04/29 03:14:58;;;;;;;;;;;;;;;25.09;39.79;99045.45;1872676;76;20220;-57
2023/04/29 03:17:45;;;;;;;;;;;;;;;25.07;39.86;99056.73;1869076;76;20303;-55
2023/04/29 03:20:33;;;;;;;;;;;;;;;25.09;39.89;99044.09;1853124;76;20188;-56
2023/04/29 03:23:23;;;;;;;;;;;;;;;25.06;39.88;99004.24;1858152;76;20152;-55
2023/04/29 03:26:11;;;;;;;;;;;;;;;25.07;39.94;99002.30;1879992;76;20116;-57
2023/04/29 03:28:58;;;;;;;;;;;;;;;25.06;39.95;99006.99;1838852;77;20211;-57
2023/04/29 03:31:46;;;;;;;;;;;;;;;25.08;39.97;98994.34;1848767;77;20173;-56
2023/04/29 03:34:34;;;;;;;;;;;;;;;25.07;39.95;98995.42;1848598;77;20159;-57
2023/04/29 03:37:23;;;;;;;;;;;;;;;25.06;39.94;99002.03;1829762;78;20157;-58
2023/04/29 03:40:13;;;;;;;;;;;;;;;25.09;39.96;99011.11;1873809;76;20244;-56
2023/04/29 03:43:02;;;;;;;;;;;;;;;25.07;39.96;98969.32;1863229;76;20134;-56
2023/04/29 03:45:50;;;;;;;;;;;;;;;25.10;39.99;98990.79;1869040;76;20191;-59
2023/04/29 03:48:39;;;;;;;;;;;;;;;25.09;39.92;99022.09;1880841;76;20184;-59
2023/04/29 03:51:27;;;;;;;;;;;;;;;25.06;39.90;99052.88;1874032;76;20184;-55
2023/04/29 03:54:16;;;;;;;;;;;;;;;25.08;39.94;99056.19;1845073;76;20137;-57
2023/04/29 03:57:05;;;;;;;;;;;;;;;25.07;39.83;99054.52;1821913;77;20187;-55
2023/04/29 03:59:53;;;;;;;;;;;;;;;25.07;39.92;99055.89;1898469;74;20136;-57
2023/04/29 04:02:41;;;;;;;;;;;;;;;25.06;39.90;99052.88;1939396;74;20124;-56
2023/04/29 04:05:29;;;;;;;;;;;;;;;25.06;40.00;99033.64;1929861;74;20203;-57
2023/04/29 04:08:18;;;;;;;;;;;;;;;25.06;39.99;99012.48;1908290;74;20118;-57
2023/04/29 04:11:13;;;;;;;;;;;;;;;25.07;40.00;99010.55;1919689;74;20122;-58
2023/04/29 04:14:01;;;;;;;;;;;;;;;25.07;39.88;99011.92;1922130;74;20311;-55
2023/04/29 04:16:49;;;;;;;;;;;;;;;25.04;40.00;99007.77;1919567;74;20189;-56
2023/04/29 04:19:37;;;;;;;;;;;;;;;25.05;39.95;99008.61;1916131;74;20118;-56
2023/04/29 04:22:24;;;;;;;;;;;;;;;25.03;39.94;99013.00;1897190;74;20204;-57
2023/04/29 04:25:13;;;;;;;;;;;;;;;25.07;39.93;99016.04;1904538;74;20190;-54
2023/04/29 04:28:01;;;;;;;;;;;;;;;25.05;40.01;99016.31;1928914;74;20181;-54
2023/04/29 04:30:49;;;;;;;;;;;;;;;25.06;39.96;99021.27;1914550;74;20150;-57
2023/04/29 04:33:37;;;;;;;;;;;;;;;25.05;39.96;99027.84;1919286;74;20151;-56
2023/04/29 04:36:25;;;;;;;;;;;;;;;25.07;40.00;99025.66;1921649;74;20126;-58
2023/04/29 04:39:13;;;;;;;;;;;;;;;25.05;39.96;99027.30;1909161;74;20122;-57
2023/04/29 04:42:02;;;;;;;;;;;;;;;25.06;40.04;99018.52;1912319;74;20178;-57
2023/04/29 04:44:52;;;;;;;;;;;;;;;25.05;40.00;99019.06;1929896;74;20231;-57
2023/04/29 04:47:41;;;;;;;;;;;;;;;25.05;39.99;99020.97;1924580;74;20185;-56
2023/04/29 04:50:40;;;;;;;;;;;;;;;25.04;39.98;99017.39;1930130;74;20140;-55
2023/04/29 04:53:27;;;;;;;;;;;;;;;25.04;40.02;99019.33;1902008;74;20151;-54
2023/04/29 04:56:17;;;;;;;;;;;;;;;25.02;40.03;99018.77;1934220;74;20175;-57
2023/04/29 04:59:04;;;;;;;;;;;;;;;25.03;39.98;99002.01;1931429;74;20184;-54
2023/04/29 05:01:53;;;;;;;;;;;;;;;25.04;39.93;99002.84;1932948;74;20120;-56
2023/04/29 05:04:41;;;;;;;;;;;;;;;25.02;40.03;98996.79;1922921;74;20188;-56
2023/04/29 05:07:29;;;;;;;;;;;;;;;25.01;40.05;98994.58;1927440;74;20163;-58
2023/04/29 05:10:18;;;;;;;;;;;;;;;25.01;40.02;98991.83;1905490;74;20144;-57
2023/04/29 05:13:07;;;;;;;;;;;;;;;24.99;40.00;98990.44;1916305;74;20121;-56
2023/04/29 05:15:55;;;;;;;;;;;;;;;25.01;40.02;98990.99;1910903;74;20192;-57
2023/04/29 05:18:45;;;;;;;;;;;;;;;25.00;40.02;98986.58;1900068;74;20189;-57
2023/04/29 05:21:33;;;;;;;;;;;;;;;24.99;40.01;98988.52;1921198;74;20182;-57
2023/04/29 05:24:21;;;;;;;;;;;;;;;25.00;39.97;98987.95;1922947;74;20118;-57
2023/04/29 05:27:09;;;;;;;;;;;;;;;24.99;39.96;98978.06;1908357;74;20158;-55
2023/04/29 05:29:57;;;;;;;;;;;;;;;24.99;39.96;98979.44;1912911;74;20170;-56
2023/04/29 05:32:45;;;;;;;;;;;;;;;25.01;39.96;98989.63;1909698;74;20188;-56
2023/04/29 05:35:34;;;;;;;;;;;;;;;25.00;39.95;98994.28;1934546;74;20121;-58
2023/04/29 05:38:27;;;;;;;;;;;;;;;24.98;39.94;98995.63;1915097;74;20206;-57
2023/04/29 05:41:13;;;;;;;;;;;;;;;24.99;40.03;98992.64;1913907;74;20203;-56
2023/04/29 05:44:07;;;;;;;;;;;;;;;25.00;39.95;98980.54;1917320;74;20169;-57
2023/04/29 05:46:55;;;;;;;;;;;;;;;24.98;40.05;98990.14;1934002;74;20169;-58
2023/04/29 05:49:42;;;;;;;;;;;;;;;24.97;40.08;98996.73;1922873;74;20161;-56
2023/04/29 05:52:30;;;;;;;;;;;;;;;24.98;40.03;99003.88;1918596;74;20118;-55
2023/04/29 05:55:19;;;;;;;;;;;;;;;24.97;41.60;98999.48;1910473;74;20157;-56
2023/04/29 05:58:07;;;;;;;;;;;;;;;24.98;42.34;99003.88;1914710;74;20199;-58
2023/04/29 06:00:54;;;;;;;;;;;;;;;24.86;42.88;99005.96;1922480;74;20122;-57
2023/04/29 06:03:42;;;;;;;;;;;;;;;24.65;44.08;99007.12;1915746;74;20234;-58
2023/04/29 06:06:32;;;;;;;;;;;;;;;24.46;44.83;98998.12;1915093;74;20118;-58
2023/04/29 06:09:24;;;;;;;;;;;;;;;24.35;45.46;98999.11;1896866;74;20172;-54
2023/04/29 06:12:12;;;;;;;;;;;;;;;24.20;45.78;99001.13;1928684;74;20188;-57
2023/04/29 06:15:01;;;;;;;;;;;;;;;24.09;46.42;99008.13;1926861;74;20168;-55
2023/04/29 06:17:49;;;;;;;;;;;;;;;24.02;46.70;99014.62;1929117;74;20114;-56
2023/04/29 06:20:37;;;;;;;;;;;;;;;23.96;47.03;99015.66;1900331;74;20124;-58
2023/04/29 06:23:24;;;;;;;;;;;;;;;23.90;47.27;99011.70;1904233;74;20174;-58
2023/04/29 06:26:12;;;;;;;;;;;;;;;23.85;47.68;99013.84;1924802;74;20169;-55
2023/04/29 06:29:00;;;;;;;;;;;;;;;23.80;47.64;99011.05;1915714;74;20119;-57
2023/04/29 06:31:47;;;;;;;;;;;;;;;23.92;47.64;99010.37;1898510;74;20122;-56
2023/04/29 06:34:35;;;;;;;;;;;;;;;24.02;47.35;99012.41;1903795;74;20210;-57
2023/04/29 06:37:30;;;;;;;;;;;;;;;24.09;47.18;99010.87;1891884;74;20228;-55
2023/04/29 06:40:28;;;;;;;;;;;;;;;24.14;46.96;99009.03;1914512;74;20220;-54
2023/04/29 06:43:30;;;;;;;;;;;;;;;24.18;47.03;99016.22;1900212;74;20247;-56
2023/04/29 06:46:35;;;;;;;;;;;;;;;24.23;47.11;99010.77;1917566;74;20153;-58
2023/04/29 06:49:42;;;;;;;;;;;;;;;24.30;46.77;99004.53;1902986;75;20252;-56
2023/04/29 06:52:30;;;;;;;;;;;;;;;24.33;46.62;99002.13;1905153;74;20154;-56
2023/04/29 06:55:18;;;;;;;;;;;;;;;24.38;46.47;99006.84;1912457;74;20126;-56
2023/04/29 06:58:05;;;;;;;;;;;;;;;24.43;46.26;99010.48;1905777;74;20145;-57
2023/04/29 07:00:54;;;;;;;;;;;;;;;24.47;46.13;99012.98;1902436;74;20206;-54
2023/04/29 07:03:42;;;;;;;;;;;;;;;24.52;45.93;99015.79;1901029;75;20170;-57
2023/04/29 07:06:29;;;;;;;;;;;;;;;24.56;45.64;99022.41;1899391;75;20150;-57
2023/04/29 07:09:17;;;;;;;;;;;;;;;24.59;45.54;99025.19;1899207;75;20157;-53
2023/04/29 07:12:05;;;;;;;;;;;;;;;24.62;45.63;99021.36;1903594;75;20264;-57
2023/04/29 07:14:53;;;;;;;;;;;;;;;24.64;45.43;99019.19;1912681;75;20316;-56
2023/04/29 07:17:40;;;;;;;;;;;;;;;24.65;45.21;99016.73;1904344;74;20123;-55
2023/04/29 07:20:27;;;;;;;;;;;;;;;24.66;45.06;99023.90;1898313;75;20119;-56
2023/04/29 07:23:15;;;;;;;;;;;;;;;24.70;44.86;99024.20;1913872;75;20127;-57
2023/04/29 07:26:13;;;;;;;;;;;;;;;24.72;44.75;99022.02;1884805;75;20164;-54
2023/04/29 07:29:02;;;;;;;;;;;;;;;24.72;44.57;99022.84;1888977;75;20147;-54
2023/04/29 07:31:49;;;;;;;;;;;;;;;24.67;44.65;99021.95;1909557;75;20123;-57
2023/04/29 07:34:37;;;;;;;;;;;;;;;24.72;44.56;99025.59;1912682;74;20130;-57
2023/04/29 07:37:25;;;;;;;;;;;;;;;24.76;44.47;99023.71;1914620;74;20178;-56
2023/04/29 07:40:13;;;;;;;;;;;;;;;24.78;44.34;99013.32;1895711;75;20184;-58
2023/04/29 07:43:03;;;;;;;;;;;;;;;24.79;44.22;98999.85;1911109;75;20119;-56
2023/04/29 07:45:49;;;;;;;;;;;;;;;24.79;44.19;99003.97;1911892;74;20216;-55
2023/04/29 07:48:40;;;;;;;;;;;;;;;24.78;44.10;99007.29;1926303;74;20170;-57
2023/04/29 07:51:27;;;;;;;;;;;;;;;24.77;44.25;99003.41;1892151;74;20170;-62
2023/04/29 07:54:15;;;;;;;;;;;;;;;24.74;44.35;99012.42;1904919;75;20182;-60
2023/04/29 07:57:03;;;;;;;;;;;;;;;24.74;44.30;99006.93;1898950;75;20174;-61
2023/04/29 07:59:52;;;;;;;;;;;;;;;24.80;44.22;99000.15;1913580;74;20219;-59
2023/04/29 08:02:41;;;;;;;;;;;;;;;24.84;44.12;98997.16;1910528;75;20182;-59
2023/04/29 08:05:30;;;;;;;;;;;;;;;24.87;44.01;99003.52;1897851;75;20166;-59
2023/04/29 08:08:18;;;;;;;;;;;;;;;24.90;44.04;99003.00;1917266;74;20139;-58
2023/04/29 08:11:05;;;;;;;;;;;;;;;24.91;43.93;98993.65;1905433;75;20166;-60
2023/04/29 08:13:55;;;;;;;;;;;;;;;24.91;43.93;98998.60;1903227;75;20122;-61
2023/04/29 08:16:42;;;;;;;;;;;;;;;24.92;44.01;98999.44;1894550;74;20145;-58
2023/04/29 08:19:30;;;;;;;;;;;;;;;24.93;43.92;98998.33;1917757;74;20115;-59
2023/04/29 08:22:17;;;;;;;;;;;;;;;24.92;43.87;98989.82;1919820;74;20134;-59
2023/04/29 08:25:05;;;;;;;;;;;;;;;24.92;43.70;98994.78;1908600;75;20169;-59
2023/04/29 08:27:52;;;;;;;;;;;;;;;24.91;43.83;98998.60;1899999;75;20166;-59
2023/04/29 08:30:40;;;;;;;;;;;;;;;24.94;43.84;98987.64;1911483;75;20122;-59
2023/04/29 08:33:28;;;;;;;;;;;;;;;24.94;43.66;98989.84;1893911;75;20188;-57
2023/04/29 08:36:15;;;;;;;;;;;;;;;24.95;43.63;98985.99;1902234;75;20161;-58
2023/04/29 08:39:03;;;;;;;;;;;;;;;24.95;43.57;98978.32;1895053;75;20147;-59
2023/04/29 08:41:51;;;;;;;;;;;;;;;24.95;43.64;98978.32;1894243;75;20202;-59
2023/04/29 08:44:39;;;;;;;;;;;;;;;24.95;43.58;98972.82;1896438;75;20143;-59
2023/04/29 08:47:29;;;;;;;;;;;;;;;24.96;43.48;98971.71;1914822;74;20168;-59
2023/04/29 08:50:17;;;;;;;;;;;;;;;24.96;43.43;98965.68;1907866;74;20243;-59
2023/04/29 08:53:06;;;;;;;;;;;;;;;24.96;43.41;98967.59;1892771;75;20188;-58
2023/04/29 08:55:55;;;;;;;;;;;;;;;24.98;43.37;98976.39;1908244;75;20170;-59
2023/04/29 08:58:43;;;;;;;;;;;;;;;24.98;43.16;98975.02;1902114;75;20232;-60
2023/04/29 09:01:31;;;;;;;;;;;;;;;24.99;43.10;98971.20;1915708;75;20158;-59
2023/04/29 09:04:20;;;;;;;;;;;;;;;24.99;43.24;98973.95;1898236;74;20134;-59
2023/04/29 09:07:08;;;;;;;;;;;;;;;25.02;43.18;98974.23;1920950;74;20169;-61
2023/04/29 09:09:57;;;;;;;;;;;;;;;25.03;43.17;98974.53;1898750;75;20201;-57
2023/04/29 09:12:45;;;;;;;;;;;;;;;25.04;43.10;98969.87;1887530;76;20126;-59
2023/04/29 09:15:37;;;;;;;;;;;;;;;25.05;42.92;98970.13;1896767;74;20168;-59
2023/04/29 09:18:43;;;;;;;;;;;;;;;25.04;42.92;98969.30;1899083;75;20150;-59
2023/04/29 09:21:31;;;;;;;;;;;;;;;25.05;42.81;98964.09;1913478;75;20123;-58
2023/04/29 09:24:20;;;;;;;;;;;;;;;25.03;42.71;98964.91;1902568;75;20150;-59
2023/04/29 09:27:08;;;;;;;;;;;;;;;25.07;42.68;98974.81;1915621;75;20123;-58
2023/04/29 09:30:01;;;;;;;;;;;;;;;25.07;42.68;98991.30;1913820;74;20176;-58
2023/04/29 09:33:05;;;;;;;;;;;;;;;25.06;42.65;98996.54;1895470;74;20360;-60
2023/04/29 09:35:53;;;;;;;;;;;;;;;25.07;42.59;98991.30;1917320;75;20151;-59
2023/04/29 09:38:42;;;;;;;;;;;;;;;25.07;42.55;98991.30;1887949;75;20122;-59
2023/04/29 09:41:29;;;;;;;;;;;;;;;25.07;42.55;99003.13;1921946;74;20133;-59
2023/04/29 09:44:17;;;;;;;;;;;;;;;25.09;42.56;99005.61;1915380;74;20160;-58
2023/04/29 09:47:06;;;;;;;;;;;;;;;25.08;42.53;99008.92;1887588;75;20124;-59
2023/04/29 09:49:55;;;;;;;;;;;;;;;25.07;42.47;99015.50;1890503;75;20217;-60
2023/04/29 09:52:43;;;;;;;;;;;;;;;25.06;42.43;99017.15;1890099;75;20166;-59
2023/04/29 09:55:30;;;;;;;;;;;;;;;25.07;42.43;99016.04;1914508;74;20126;-59
2023/04/29 09:58:29;;;;;;;;;;;;;;;25.09;42.46;99019.34;1869617;76;20206;-59
2023/04/29 10:01:20;;;;;;;;;;;;;;;25.09;42.41;99019.34;1855355;76;20129;-59
2023/04/29 10:04:09;;;;;;;;;;;;;;;25.04;42.35;99011.89;1858836;76;20129;-59
2023/04/29 10:06:57;;;;;;;;;;;;;;;25.08;42.40;99015.80;1877969;76;20150;-58
2023/04/29 10:09:46;;;;;;;;;;;;;;;25.08;42.35;99018.55;1869695;76;20172;-61
2023/04/29 10:12:35;;;;;;;;;;;;;;;25.08;42.41;99018.55;1873271;76;20142;-58
2023/04/29 10:15:27;;;;;;;;;;;;;;;25.11;42.30;99017.20;1862064;76;20177;-58
2023/04/29 10:18:16;;;;;;;;;;;;;;;25.11;42.30;99017.20;1883067;76;20125;-59
2023/04/29 10:21:04;;;;;;;;;;;;;;;25.10;42.34;99015.52;1873907;76;20121;-59
2023/04/29 10:23:53;;;;;;;;;;;;;;;25.10;42.33;99012.78;1863780;76;20219;-57
2023/04/29 10:26:41;;;;;;;;;;;;;;;25.11;42.31;99015.82;1844804;77;20127;-58
2023/04/29 10:29:30;;;;;;;;;;;;;;;25.10;42.25;99016.90;1846821;77;20133;-58
2023/04/29 10:32:19;;;;;;;;;;;;;;;25.10;42.20;99010.86;1869916;76;20166;-59
2023/04/29 10:35:08;;;;;;;;;;;;;;;25.11;42.19;99013.07;1850755;77;20132;-59
2023/04/29 10:37:57;;;;;;;;;;;;;;;25.13;42.22;99008.14;1866855;76;20121;-58
2023/04/29 10:40:48;;;;;;;;;;;;;;;25.13;42.18;99006.23;1867586;77;20124;-59
2023/04/29 10:43:36;;;;;;;;;;;;;;;25.11;42.09;99007.00;1842258;77;20174;-59
2023/04/29 10:46:27;;;;;;;;;;;;;;;25.10;42.24;99003.99;1845449;77;20127;-60
2023/04/29 10:49:15;;;;;;;;;;;;;;;25.13;42.14;98999.89;1837789;77;20146;-60
2023/04/29 10:52:03;;;;;;;;;;;;;;;25.11;42.13;98998.76;1833203;77;20122;-60
2023/04/29 10:55:04;;;;;;;;;;;;;;;25.14;42.15;98997.41;1827520;77;20156;-59
2023/04/29 10:57:57;;;;;;;;;;;;;;;25.12;42.08;98993.56;1855240;77;20211;-60
2023/04/29 11:00:44;;;;;;;;;;;;;;;25.11;42.09;98990.52;1848529;77;20123;-58
2023/04/29 11:03:57;;;;;;;;;;;;;;;25.12;42.06;98992.72;1824527;77;20153;-58
2023/04/29 11:06:41;;;;;;;;;;;;;;;25.11;42.06;98990.52;1835817;77;20214;-59
2023/04/29 11:09:32;;;;;;;;;;;;;;;25.12;42.06;98988.59;1829527;78;20123;-58
2023/04/29 11:12:20;;;;;;;;;;;;;;;25.14;42.01;98985.04;1812225;79;20181;-58
2023/04/29 11:15:10;;;;;;;;;;;;;;;25.14;41.87;98978.16;1817702;78;20174;-60
2023/04/29 11:17:58;;;;;;;;;;;;;;;25.17;41.96;98975.73;1830808;78;20200;-59
2023/04/29 11:21:02;;;;;;;;;;;;;;;25.19;41.86;98969.42;1829047;78;20206;-58
2023/04/29 11:23:51;;;;;;;;;;;;;;;25.18;41.79;98966.95;1725341;83;20141;-58
2023/04/29 11:26:38;;;;;;;;;;;;;;;25.17;41.85;98963.91;1829234;78;20237;-59
2023/04/29 11:29:26;;;;;;;;;;;;;;;25.19;41.80;98963.92;1845625;77;20190;-59
2023/04/29 11:32:14;;;;;;;;;;;;;;;25.19;41.76;98965.84;1831026;78;20152;-58
2023/04/29 11:35:14;;;;;;;;;;;;;;;25.21;41.75;98969.15;1821764;78;20195;-58
2023/04/29 11:38:04;;;;;;;;;;;;;;;25.20;41.70;98973.84;1821519;78;20236;-58
2023/04/29 11:40:52;;;;;;;;;;;;;;;25.18;41.76;98966.95;1831334;77;20155;-61
2023/04/29 11:43:40;;;;;;;;;;;;;;;25.22;41.63;98966.70;1844231;78;20166;-61
2023/04/29 11:46:29;;;;;;;;;;;;;;;25.22;41.65;98974.94;1840014;78;20127;-59
2023/04/29 11:49:16;;;;;;;;;;;;;;;25.21;41.63;98966.40;1837783;78;20121;-59
2023/04/29 11:52:04;;;;;;;;;;;;;;;25.21;41.61;98963.11;1838766;78;20160;-59
2023/04/29 11:54:51;;;;;;;;;;;;;;;25.20;41.57;98960.64;1827062;78;20127;-59
2023/04/29 11:57:39;;;;;;;;;;;;;;;25.22;41.59;98961.20;1844299;78;20178;-58
2023/04/29 12:00:27;;;;;;;;;;;;;;;25.21;41.56;98960.91;1837508;78;20123;-58
2023/04/29 12:03:15;;;;;;;;;;;;;;;25.24;41.51;98962.59;1871468;76;20147;-59
2023/04/29 12:06:03;;;;;;;;;;;;;;;25.24;41.51;98951.59;1820910;78;20123;-59
2023/04/29 12:08:50;;;;;;;;;;;;;;;25.24;41.52;98955.72;1855574;77;20120;-58
2023/04/29 12:11:38;;;;;;;;;;;;;;;25.24;41.50;98959.01;1849016;77;20159;-57
2023/04/29 12:14:26;;;;;;;;;;;;;;;25.24;41.51;98960.38;1823913;78;20122;-59
2023/04/29 12:17:14;;;;;;;;;;;;;;;25.27;41.44;98960.70;1837599;77;20150;-58
2023/04/29 12:20:02;;;;;;;;;;;;;;;25.26;41.36;98959.03;1858246;77;20117;-59
2023/04/29 12:22:49;;;;;;;;;;;;;;;25.25;41.45;98958.73;1853840;77;20204;-58
2023/04/29 12:25:37;;;;;;;;;;;;;;;25.24;41.41;98965.34;1808358;79;20150;-59
2023/04/29 12:28:25;;;;;;;;;;;;;;;25.25;41.37;98969.73;1818480;78;20166;-57
2023/04/29 12:31:14;;;;;;;;;;;;;;;25.27;41.42;98964.82;1860221;77;20168;-59
2023/04/29 12:34:03;;;;;;;;;;;;;;;25.28;41.36;98958.75;1841697;78;20222;-58
2023/04/29 12:36:51;;;;;;;;;;;;;;;25.28;41.33;98962.88;1861022;77;20157;-59
2023/04/29 12:39:39;;;;;;;;;;;;;;;25.28;41.31;98958.75;1858274;77;20227;-58
2023/04/29 12:42:28;;;;;;;;;;;;;;;25.28;41.31;98964.25;1849873;76;20189;-59
2023/04/29 12:45:29;;;;;;;;;;;;;;;25.29;41.34;98961.80;1822427;78;20211;-59
2023/04/29 12:48:16;;;;;;;;;;;;;;;25.27;41.28;98968.95;1854738;77;20125;-59
2023/04/29 12:51:04;;;;;;;;;;;;;;;25.29;41.26;98964.55;1820435;78;20191;-59
2023/04/29 12:53:52;;;;;;;;;;;;;;;25.29;41.23;98968.67;1830838;77;20192;-59
2023/04/29 12:56:39;;;;;;;;;;;;;;;25.28;41.22;98964.25;1833419;78;20182;-60
2023/04/29 12:59:27;;;;;;;;;;;;;;;25.29;41.24;98968.67;1850254;78;20123;-60
2023/04/29 13:02:15;;;;;;;;;;;;;;;25.28;41.22;98978.00;1848470;78;20150;-60
2023/04/29 13:05:03;;;;;;;;;;;;;;;25.30;41.20;98967.02;1847161;78;20150;-60
2023/04/29 13:07:50;;;;;;;;;;;;;;;25.31;41.12;98964.56;1824161;79;20131;-60
2023/04/29 13:10:38;;;;;;;;;;;;;;;25.31;41.12;98969.23;1902983;75;20146;-60
2023/04/29 13:13:26;;;;;;;;;;;;;;;25.31;41.12;98968.69;1899609;75;20116;-58
2023/04/29 13:16:13;;;;;;;;;;;;;;;25.31;41.10;98972.81;1903075;75;20168;-57
2023/04/29 13:19:01;;;;;;;;;;;;;;;25.31;41.13;98978.85;1888634;76;20119;-58
2023/04/29 13:21:49;;;;;;;;;;;;;;;25.33;41.10;98973.91;1912154;75;20146;-57
2023/04/29 13:24:37;;;;;;;;;;;;;;;25.34;41.06;98974.20;1895486;76;20119;-57
2023/04/29 13:27:24;;;;;;;;;;;;;;;25.34;41.07;98975.58;1894035;75;20146;-61
2023/04/29 13:30:12;;;;;;;;;;;;;;;25.34;41.04;98976.38;1903364;75;20154;-59
2023/04/29 13:33:00;;;;;;;;;;;;;;;25.33;41.06;98972.00;1903203;75;20231;-60
2023/04/29 13:35:48;;;;;;;;;;;;;;;25.35;41.01;98978.59;1921215;75;20186;-58
2023/04/29 13:38:36;;;;;;;;;;;;;;;25.36;41.00;98958.27;1910109;75;20114;-58
2023/04/29 13:41:25;;;;;;;;;;;;;;;25.35;41.04;98968.97;1900332;75;20122;-59
2023/04/29 13:44:13;;;;;;;;;;;;;;;25.36;40.99;98965.98;1903009;75;20145;-58
2023/04/29 13:47:00;;;;;;;;;;;;;;;25.35;40.95;98960.72;1907153;75;20225;-58
2023/04/29 13:49:47;;;;;;;;;;;;;;;25.36;40.95;98963.77;1891365;76;20119;-58
2023/04/29 13:52:35;;;;;;;;;;;;;;;25.36;40.92;98957.73;1896672;76;20163;-58
2023/04/29 13:55:22;;;;;;;;;;;;;;;25.39;40.81;98966.00;1910823;75;20188;-57
2023/04/29 13:58:09;;;;;;;;;;;;;;;25.38;40.83;98962.95;1902725;75;20119;-58
2023/04/29 14:00:57;;;;;;;;;;;;;;;25.38;40.84;98965.16;1899362;75;20140;-56
2023/04/29 14:03:44;;;;;;;;;;;;;;;25.37;40.81;98965.41;1919233;75;20178;-56
2023/04/29 14:06:33;;;;;;;;;;;;;;;25.37;40.87;98966.23;1907573;75;20142;-58
2023/04/29 14:09:21;;;;;;;;;;;;;;;25.38;40.82;98963.78;1908679;74;20206;-58
2023/04/29 14:12:09;;;;;;;;;;;;;;;25.39;40.79;98964.63;1924342;74;20147;-58
2023/04/29 14:14:57;;;;;;;;;;;;;;;25.39;40.78;98961.88;1918663;74;20118;-58
2023/04/29 14:17:44;;;;;;;;;;;;;;;25.38;40.78;98960.20;1924491;74;20204;-58
2023/04/29 14:20:32;;;;;;;;;;;;;;;25.39;40.77;98961.88;1922282;75;20216;-58
2023/04/29 14:23:20;;;;;;;;;;;;;;;25.40;40.78;98952.51;1922254;75;20159;-60
2023/04/29 14:26:08;;;;;;;;;;;;;;;25.36;40.75;98953.60;1921901;74;20164;-58
2023/04/29 14:28:58;;;;;;;;;;;;;;;25.37;40.80;98957.16;1900415;74;20129;-58
2023/04/29 14:31:46;;;;;;;;;;;;;;;25.36;40.91;98956.35;1919564;74;20196;-58
2023/04/29 14:34:34;;;;;;;;;;;;;;;25.36;40.98;98950.02;1908701;74;20185;-60
2023/04/29 14:37:21;;;;;;;;;;;;;;;25.37;41.08;98947.53;1924332;74;20177;-58
2023/04/29 14:40:09;;;;;;;;;;;;;;;25.37;41.11;98948.37;1922260;74;20268;-58
2023/04/29 14:42:56;;;;;;;;;;;;;;;25.36;41.14;98950.85;1927849;74;20169;-58